Time;durP1;ratioP1;P1;durP2;ratioP2;P2;SDS_P1;SDS_P2;PMS_P1;PMS_P2;Temp;Humidity;BMP_temperature;BMP_pressure;BME280_temperature;BME280_humidity;BME280_pressure;Samples;Min_cycle;Max_cycle;Signal;HPM_P1;HPM_P2
2022/05/07 06:03:00;;;;;;;9.18;7.00;;;;;;;;;;10602739;27;20419;-83
2022/05/07 06:08:02;;;;;;;7.00;6.18;;;;;;;;;;10581961;28;20034;-84
2022/05/07 06:13:07;;;;;;;6.90;6.05;;;;;;;;;;10583918;28;20099;-85
2022/05/07 06:18:35;;;;;;;9.07;7.97;;;;;;;;;;10581135;28;20062;-83
2022/05/07 06:23:48;;;;;;;15.18;11.73;;;;;;;;;;10580211;28;20016;-83
2022/05/07 06:29:12;;;;;;;;;;;;;;;;;;10580447;28;20028;-85
2022/05/07 06:34:24;;;;;;;7.75;6.00;;;;;;;;;;10555511;28;19904;-86
2022/05/07 06:39:39;;;;;;;7.15;5.95;;;;;;;;;;10543568;28;20036;-86
2022/05/07 06:45:12;;;;;;;12.07;10.75;;;;;;;;;;10542333;28;20024;-86
2022/05/07 06:56:17;;;;;;;8.00;5.80;;;;;;;;;;10543840;28;20020;-84
2022/05/07 07:01:18;;;;;;;7.82;6.28;;;;;;;;;;10543049;28;20028;-82
2022/05/07 07:06:19;;;;;;;9.45;8.13;;;;;;;;;;10547180;28;20036;-80
2022/05/07 07:11:21;;;;;;;10.45;8.98;;;;;;;;;;10547870;28;20032;-79
2022/05/07 07:16:22;;;;;;;10.32;7.88;;;;;;;;;;10525958;28;20015;-82
2022/05/07 07:21:23;;;;;;;11.07;8.85;;;;;;;;;;10526728;28;20024;-83
2022/05/07 07:26:24;;;;;;;9.63;7.82;;;;;;;;;;10520728;28;20033;-78
2022/05/07 07:31:27;;;;;;;11.25;9.60;;;;;;;;;;10516358;28;20024;-78
2022/05/07 07:36:28;;;;;;;12.82;9.45;;;;;;;;;;10525082;28;20020;-81
2022/05/07 07:41:29;;;;;;;20.33;16.35;;;;;;;;;;10550501;28;20059;-80
2022/05/07 07:51:50;;;;;;;12.63;10.13;;;;;;;;;;10527390;28;20036;-83
2022/05/07 07:56:51;;;;;;;12.82;9.80;;;;;;;;;;10529348;28;20059;-79
2022/05/07 08:01:52;;;;;;;12.23;10.52;;;;;;;;;;10531296;28;20040;-80
2022/05/07 08:12:13;;;;;;;17.93;16.03;;;;;;;;;;10514951;28;20508;-81
2022/05/07 08:17:15;;;;;;;14.90;11.35;;;;;;;;;;10519118;28;20301;-80
2022/05/07 08:22:16;;;;;;;14.77;11.50;;;;;;;;;;10536806;28;20033;-79
2022/05/07 08:27:17;;;;;;;16.92;12.82;;;;;;;;;;10540385;28;20065;-79
2022/05/07 08:32:18;;;;;;;15.95;12.00;;;;;;;;;;10541317;28;20059;-82
2022/05/07 08:37:19;;;;;;;14.85;11.75;;;;;;;;;;10535670;28;20040;-82
2022/05/07 08:42:20;;;;;;;18.73;14.52;;;;;;;;;;10524145;28;20470;-83
2022/05/07 08:47:23;;;;;;;12.93;10.20;;;;;;;;;;10513963;28;20020;-78
2022/05/07 08:52:24;;;;;;;26.15;17.08;;;;;;;;;;10506397;28;20417;-76
2022/05/07 08:57:26;;;;;;;23.50;16.80;;;;;;;;;;10530611;28;20039;-81
2022/05/07 09:02:27;;;;;;;17.05;13.20;;;;;;;;;;10527722;22;20037;-82
2022/05/07 09:07:28;;;;;;;20.58;14.80;;;;;;;;;;10487489;28;20539;-81
2022/05/07 09:12:29;;;;;;;20.67;16.58;;;;;;;;;;10491209;28;20032;-80
2022/05/07 09:17:30;;;;;;;17.20;13.85;;;;;;;;;;10477606;28;20025;-80
2022/05/07 09:22:31;;;;;;;13.93;11.48;;;;;;;;;;10495078;28;20501;-79
2022/05/07 09:27:33;;;;;;;23.83;17.75;;;;;;;;;;10490452;28;20120;-80
2022/05/07 09:32:35;;;;;;;22.42;17.52;;;;;;;;;;10487300;28;20025;-80
2022/05/07 09:37:38;;;;;;;17.40;14.02;;;;;;;;;;10487761;28;20024;-80
2022/05/07 09:42:42;;;;;;;16.33;12.90;;;;;;;;;;10489541;28;20550;-81
2022/05/07 09:47:42;;;;;;;21.25;15.50;;;;;;;;;;10488419;28;20024;-80
2022/05/07 09:58:03;;;;;;;24.45;19.48;;;;;;;;;;10477009;28;20029;-79
2022/05/07 10:03:17;;;;;;;21.10;16.27;;;;;;;;;;10493977;28;20036;-82
2022/05/07 10:08:36;;;;;;;24.38;17.88;;;;;;;;;;10487271;28;20025;-81
2022/05/07 10:13:38;;;;;;;26.53;21.63;;;;;;;;;;10483108;28;20060;-81
2022/05/07 10:18:44;;;;;;;24.63;17.88;;;;;;;;;;10472626;28;20029;-80
2022/05/07 10:23:55;;;;;;;20.55;18.00;;;;;;;;;;10495080;28;20040;-80
2022/05/07 10:28:57;;;;;;;21.73;17.95;;;;;;;;;;10498256;28;20029;-80
2022/05/07 10:33:58;;;;;;;20.23;15.60;;;;;;;;;;10483336;28;20029;-79
2022/05/07 10:39:06;;;;;;;17.95;14.25;;;;;;;;;;10496809;28;20426;-81
2022/05/07 10:44:07;;;;;;;22.70;14.38;;;;;;;;;;10477330;28;20413;-81
2022/05/07 10:49:09;;;;;;;17.15;14.40;;;;;;;;;;10490172;28;20048;-80
2022/05/07 10:54:39;;;;;;;9.98;8.88;;;;;;;;;;10483274;28;20342;-80
2022/05/07 10:59:45;;;;;;;15.63;11.88;;;;;;;;;;10453479;28;20091;-80
2022/05/07 11:04:46;;;;;;;16.83;12.75;;;;;;;;;;10494201;28;20032;-80
2022/05/07 11:09:51;;;;;;;11.38;8.38;;;;;;;;;;10488313;28;20033;-80
2022/05/07 11:14:52;;;;;;;11.70;9.00;;;;;;;;;;10470817;28;20426;-80
2022/05/07 11:19:53;;;;;;;14.85;11.85;;;;;;;;;;10471875;28;20060;-81
2022/05/07 11:24:56;;;;;;;15.40;12.43;;;;;;;;;;10486275;28;20090;-81
2022/05/07 11:29:57;;;;;;;12.95;11.65;;;;;;;;;;10487968;28;20379;-82
2022/05/07 11:34:58;;;;;;;16.02;12.98;;;;;;;;;;10487030;28;20478;-82
2022/05/07 11:40:00;;;;;;;15.18;12.52;;;;;;;;;;10493148;28;20067;-81
2022/05/07 11:50:21;;;;;;;;;;;;;;;;;;10485055;28;20037;-80
2022/05/07 11:55:29;;;;;;;11.77;9.10;;;;;;;;;;10465513;28;19905;-80
2022/05/07 12:00:30;;;;;;;12.57;11.27;;;;;;;;;;10464650;28;20033;-80
2022/05/07 12:05:39;;;;;;;12.55;10.20;;;;;;;;;;10467448;28;20104;-79
2022/05/07 12:10:40;;;;;;;12.77;10.48;;;;;;;;;;10473692;28;20021;-81
2022/05/07 12:21:00;;;;;;;15.27;12.25;;;;;;;;;;10472653;28;20037;-80
2022/05/07 12:31:22;;;;;;;12.35;10.45;;;;;;;;;;10480036;28;20490;-80
2022/05/07 12:36:23;;;;;;;12.73;10.88;;;;;;;;;;10495682;28;20052;-80
2022/05/07 12:41:24;;;;;;;13.57;11.95;;;;;;;;;;10493604;28;20029;-80
2022/05/07 12:46:25;;;;;;;13.00;11.25;;;;;;;;;;10494384;28;20116;-80
2022/05/07 12:51:27;;;;;;;19.42;14.20;;;;;;;;;;10491857;28;20099;-80
2022/05/07 12:56:28;;;;;;;13.15;10.45;;;;;;;;;;10477327;28;20025;-80
2022/05/07 13:01:29;;;;;;;12.73;10.05;;;;;;;;;;10491744;28;20040;-80
2022/05/07 13:06:30;;;;;;;15.85;11.05;;;;;;;;;;10486937;28;20439;-80
2022/05/07 13:11:31;;;;;;;13.50;10.07;;;;;;;;;;10482496;28;20052;-80
2022/05/07 13:16:32;;;;;;;11.00;8.55;;;;;;;;;;10483512;28;20028;-80
2022/05/07 13:21:33;;;;;;;11.38;9.80;;;;;;;;;;10468409;28;20063;-79
2022/05/07 13:26:36;;;;;;;13.68;11.50;;;;;;;;;;10464777;28;20025;-80
2022/05/07 13:31:37;;;;;;;16.92;13.82;;;;;;;;;;10479708;28;20021;-79
2022/05/07 13:36:38;;;;;;;8.77;7.78;;;;;;;;;;10481100;28;20055;-80
2022/05/07 13:41:40;;;;;;;19.25;12.95;;;;;;;;;;10467997;28;20017;-79
2022/05/07 13:46:43;;;;;;;18.00;13.15;;;;;;;;;;10467670;28;20025;-81
2022/05/07 13:51:44;;;;;;;14.05;12.57;;;;;;;;;;10479661;28;20021;-81
2022/05/07 13:56:45;;;;;;;12.68;11.00;;;;;;;;;;10478108;28;20072;-81
2022/05/07 14:01:46;;;;;;;13.85;12.50;;;;;;;;;;10463312;28;20139;-80
2022/05/07 14:06:47;;;;;;;15.02;13.43;;;;;;;;;;10462864;28;20100;-79
2022/05/07 14:11:48;;;;;;;10.13;8.43;;;;;;;;;;10478542;28;20021;-79
2022/05/07 14:16:49;;;;;;;18.48;11.20;;;;;;;;;;10460972;28;20036;-79
2022/05/07 14:21:50;;;;;;;16.13;13.52;;;;;;;;;;10482883;28;20140;-80
2022/05/07 14:26:51;;;;;;;11.25;10.02;;;;;;;;;;10487071;28;20343;-79
2022/05/07 14:31:52;;;;;;;11.43;9.88;;;;;;;;;;10487347;28;20143;-80
2022/05/07 14:36:53;;;;;;;9.40;8.00;;;;;;;;;;10468827;28;20025;-79
2022/05/07 14:41:54;;;;;;;11.98;10.75;;;;;;;;;;10464372;28;20029;-79
2022/05/07 14:46:55;;;;;;;16.38;10.90;;;;;;;;;;10466827;28;20470;-79
2022/05/07 14:51:56;;;;;;;8.85;7.95;;;;;;;;;;10482900;28;20029;-78
2022/05/07 14:56:58;;;;;;;14.63;9.38;;;;;;;;;;10465966;28;20047;-79
2022/05/07 15:01:59;;;;;;;13.85;11.10;;;;;;;;;;10521054;22;20150;-80
2022/05/07 15:07:00;;;;;;;7.75;6.53;;;;;;;;;;10504464;28;20066;-82
2022/05/07 15:12:01;;;;;;;8.02;6.30;;;;;;;;;;10501298;28;20025;-83
2022/05/07 15:17:04;;;;;;;10.95;6.72;;;;;;;;;;10502713;28;20092;-85
2022/05/07 15:22:05;;;;;;;13.02;7.13;;;;;;;;;;10506188;28;20039;-83
2022/05/07 15:27:06;;;;;;;8.75;6.07;;;;;;;;;;10508217;28;20035;-82
2022/05/07 15:37:37;;;;;;;9.52;6.53;;;;;;;;;;10519024;28;20056;-87
2022/05/07 15:42:38;;;;;;;10.30;7.13;;;;;;;;;;10502311;28;20043;-86
2022/05/07 15:47:41;;;;;;;8.70;5.45;;;;;;;;;;10509329;28;20024;-84
2022/05/07 15:52:42;;;;;;;9.13;6.50;;;;;;;;;;10512276;28;20049;-84
2022/05/07 15:57:43;;;;;;;7.38;5.30;;;;;;;;;;10504122;28;20536;-83
2022/05/07 16:02:44;;;;;;;9.85;6.68;;;;;;;;;;10494192;28;20029;-83
2022/05/07 16:07:48;;;;;;;11.18;8.07;;;;;;;;;;10495303;28;20111;-82
2022/05/07 16:12:51;;;;;;;11.05;7.60;;;;;;;;;;10478603;28;20036;-82
2022/05/07 16:18:02;;;;;;;9.07;5.55;;;;;;;;;;10511227;28;20028;-82
2022/05/07 16:28:28;;;;;;;4.70;4.10;;;;;;;;;;10508993;28;20044;-82
2022/05/07 16:33:45;;;;;;;9.07;6.60;;;;;;;;;;10493539;28;20063;-83
2022/05/07 16:38:55;;;;;;;5.60;4.30;;;;;;;;;;10529725;28;20060;-84
2022/05/07 16:43:56;;;;;;;6.28;4.30;;;;;;;;;;10493773;28;20077;-84
2022/05/07 16:48:59;;;;;;;6.10;4.05;;;;;;;;;;10495584;28;20060;-82
2022/05/07 16:54:13;;;;;;;4.57;3.80;;;;;;;;;;10516589;28;20021;-84
2022/05/07 16:59:14;;;;;;;6.78;4.78;;;;;;;;;;10512082;28;20032;-82
2022/05/07 17:04:24;;;;;;;5.57;3.50;;;;;;;;;;10494792;28;20434;-82
2022/05/07 17:09:26;;;;;;;6.43;3.55;;;;;;;;;;10495255;28;20012;-84
2022/05/07 17:14:28;;;;;;;3.58;3.00;;;;;;;;;;10510737;28;20462;-85
2022/05/07 17:19:30;;;;;;;4.72;3.28;;;;;;;;;;10506044;28;20039;-80
2022/05/07 17:24:40;;;;;;;5.68;3.53;;;;;;;;;;10501045;28;20024;-85
2022/05/07 17:29:41;;;;;;;;;;;;;;;;;;10498495;28;20048;-84
2022/05/07 17:34:50;;;;;;;6.70;4.38;;;;;;;;;;10511827;28;20422;-85
2022/05/07 17:39:51;;;;;;;5.90;3.70;;;;;;;;;;10497956;28;20044;-84
2022/05/07 17:44:58;;;;;;;6.25;4.15;;;;;;;;;;10489308;28;20090;-84
2022/05/07 17:50:08;;;;;;;6.15;4.43;;;;;;;;;;10494791;28;20059;-84
2022/05/07 17:55:34;;;;;;;5.75;5.00;;;;;;;;;;10498206;28;20031;-84
2022/05/07 18:00:45;;;;;;;8.18;4.75;;;;;;;;;;10513476;28;20021;-85
2022/05/07 18:05:49;;;;;;;7.38;5.07;;;;;;;;;;10523935;28;20057;-84
2022/05/07 18:10:51;;;;;;;5.00;3.63;;;;;;;;;;10506012;28;20092;-86
2022/05/07 18:16:05;;;;;;;3.92;3.30;;;;;;;;;;10515438;28;20090;-85
2022/05/07 18:26:24;;;;;;;5.28;3.88;;;;;;;;;;10598899;22;20421;-82
2022/05/07 18:31:27;;;;;;;4.90;4.25;;;;;;;;;;10574359;28;20100;-82
2022/05/07 18:47:13;;;;;;;5.60;5.00;;;;;;;;;;10551608;28;20036;-83
2022/05/07 18:52:14;;;;;;;6.68;5.30;;;;;;;;;;10550951;28;20334;-85
2022/05/07 19:02:36;;;;;;;8.75;5.70;;;;;;;;;;10577388;28;20032;-84
2022/05/07 19:07:46;;;;;;;4.68;3.25;;;;;;;;;;10579733;28;20020;-83
2022/05/07 19:12:50;;;;;;;4.55;3.55;;;;;;;;;;10581641;28;20144;-84
2022/05/07 19:17:51;;;;;;;4.05;3.30;;;;;;;;;;10566450;28;20103;-84
2022/05/07 19:22:52;;;;;;;4.43;3.17;;;;;;;;;;10564964;28;20385;-85
